| Date | Time | Temp. (oF) | Dew Point (oF) | Rel. Hum. (%) | Press. (in.) | Wind Dir. | Wind Speed (mph) | Hourly Rainfall (in.) |
|
|---|---|---|---|---|---|---|---|---|---|
| 1 | 09/09 | 00:00 | 70 | 64 | 84 | 30.08 | S | 2 | 0.00 |
| 2 | 09/08 | 23:00 | 70 | 63 | 79 | 30.10 | S | 3 | 0.00 |
| 3 | 09/08 | 22:00 | 71 | 63 | 77 | 30.11 | ESE | 0 | 0.00 |
| 4 | 09/08 | 21:00 | 73 | 62 | 70 | 30.10 | S | 0 | 0.00 |
| 5 | 09/08 | 20:00 | 75 | 62 | 66 | 30.09 | S | 3 | 0.00 |
| 6 | 09/08 | 19:00 | 79 | 63 | 59 | 30.08 | SSE | 1 | 0.00 |
| 7 | 09/08 | 18:00 | 81 | 61 | 52 | 30.08 | SSW | 4 | 0.00 |
| 8 | 09/08 | 17:00 | 83 | 60 | 47 | 30.08 | SSE | 6 | 0.00 |
| 9 | 09/08 | 16:00 | 83 | 59 | 45 | 30.09 | SW | 4 | 0.00 |
| 10 | 09/08 | 15:00 | 83 | 59 | 46 | 30.10 | WNW | 4 | 0.00 |
| 11 | 09/08 | 14:00 | 81 | 61 | 51 | 30.13 | N | 2 | 0.00 |
| 12 | 09/08 | 13:00 | 81 | 61 | 52 | 30.15 | WSW | 7 | 0.00 |
| 13 | 09/08 | 12:00 | 79 | 61 | 56 | 30.17 | S | 0 | 0.00 |
| 14 | miss | miss | miss | miss | miss | miss | miss | miss | |
| 15 | 09/06 | 14:06 | 71 | 71 | 100 | 29.71 | N | 6 | 0.09 |
| 16 | miss | miss | miss | miss | miss | miss | miss | miss | |
| 17 | 09/06 | 14:04 | 71 | 71 | 100 | 29.72 | N | 6 | 0.08 |
| 18 | miss | miss | miss | miss | miss | miss | miss | miss | |
| 19 | 09/06 | 14:02 | 72 | 72 | 100 | 29.72 | ENE | 6 | 0.06 |
| 20 | miss | miss | miss | miss | miss | miss | miss | miss | |
| 21 | 09/06 | 14:00 | 72 | 72 | 100 | 29.73 | SE | 4 | 0.83 |
| 22 | 09/06 | 13:59 | 72 | 72 | 100 | 29.73 | ESE | 5 | 0.80 |
| 23 | 09/06 | 13:58 | 72 | 72 | 100 | 29.72 | NE | 14 | 0.78 |
| 24 | 09/06 | 13:57 | 72 | 72 | 100 | 29.72 | ENE | 10 | 0.77 |
| 25 | miss | miss | miss | miss | miss | miss | miss | miss | |
| 26 | 09/06 | 13:56 | 72 | 72 | 100 | 29.72 | NNE | 8 | 0.76 |
| 27 | miss | miss | miss | miss | miss | miss | miss | miss | |
| 28 | 09/06 | 13:56 | 72 | 72 | 100 | 29.72 | NNE | 8 | 0.76 |
| 29 | miss | miss | miss | miss | miss | miss | miss | miss | |
| 30 | 09/06 | 13:56 | 72 | 72 | 100 | 29.72 | NNE | 8 | 0.76 |
| 31 | miss | miss | miss | miss | miss | miss | miss | miss | |
| 32 | 09/06 | 13:56 | 72 | 72 | 100 | 29.72 | NNE | 8 | 0.76 |
| 33 | miss | miss | miss | miss | miss | miss | miss | miss | |
| 34 | 09/06 | 13:56 | 72 | 72 | 100 | 29.72 | NNE | 8 | 0.76 |
| 35 | 09/06 | 13:56 | 72 | 72 | 100 | 29.72 | NNE | 8 | 0.76 |
| 36 | 09/06 | 13:00 | 74 | 73 | 100 | 29.73 | NE | 6 | 0.43 |
| 37 | 09/06 | 12:00 | 75 | 75 | 100 | 29.78 | NNE | 8 | 0.18 |
| 38 | 09/06 | 11:00 | 75 | 75 | 100 | 29.82 | E | 6 | 0.14 |
| 39 | 09/06 | 10:00 | 75 | 75 | 100 | 29.83 | ENE | 7 | 0.06 |
| 40 | 09/06 | 09:00 | 75 | 75 | 100 | 29.86 | ESE | 4 | 0.01 |
| 41 | 09/06 | 08:00 | 75 | 75 | 100 | 29.87 | ENE | 0 | 0.00 |
| 42 | 09/06 | 07:00 | 74 | 73 | 100 | 29.87 | E | 4 | 0.00 |
| 43 | 09/06 | 06:00 | 74 | 73 | 100 | 29.87 | E | 0 | 0.00 |
| 44 | 09/06 | 05:00 | 75 | 75 | 100 | 29.89 | S | 0 | 0.00 |
| 45 | 09/06 | 04:00 | 74 | 73 | 100 | 29.89 | ESE | 0 | 0.00 |
| 46 | 09/06 | 03:00 | 73 | 72 | 100 | 29.90 | SSW | 0 | 0.00 |
| 47 | 09/06 | 02:00 | 73 | 72 | 100 | 29.91 | E | 0 | 0.00 |
| 48 | 09/06 | 01:00 | 72 | 71 | 98 | 29.93 | E | 3 | 0.01 |
| 49 | 09/06 | 00:00 | 73 | 71 | 95 | 29.94 | SSE | 1 | 0.00 |
| 50 | 09/05 | 23:00 | 73 | 69 | 90 | 29.96 | SSW | 2 | 0.01 |
| 51 | 09/05 | 22:00 | 75 | 68 | 81 | 29.97 | S | 8 | 0.00 |
| 52 | 09/05 | 21:00 | 75 | 66 | 75 | 29.97 | SSW | 2 | 0.00 |
| 53 | 09/05 | 20:00 | 77 | 63 | 63 | 29.96 | ESE | 4 | 0.00 |
| 54 | 09/05 | 19:00 | 80 | 62 | 55 | 29.96 | ESE | 3 | 0.00 |
| 55 | 09/05 | 18:00 | 83 | 68 | 61 | 29.95 | SE | 7 | 0.00 |
| 56 | 09/05 | 17:00 | 86 | 67 | 54 | 29.95 | SSW | 0 | 0.00 |
| 57 | 09/05 | 16:00 | 87 | 63 | 46 | 29.96 | S | 6 | 0.00 |
| 58 | 09/05 | 15:00 | 86 | 63 | 48 | 29.99 | SSW | 10 | 0.00 |
| 59 | 09/05 | 14:00 | 86 | 63 | 48 | 30.01 | SSW | 12 | 0.00 |
| 60 | 09/05 | 13:00 | 86 | 66 | 53 | 30.02 | ESE | 4 | 0.00 |
| 61 | 09/05 | 12:00 | 85 | 67 | 56 | 30.03 | SSW | 6 | 0.00 |
| 62 | 09/05 | 11:00 | 83 | 67 | 60 | 30.04 | SW | 3 | 0.00 |
| 63 | 09/05 | 10:00 | 79 | 67 | 69 | 30.03 | SW | 1 | 0.00 |
| 64 | 09/05 | 09:00 | 76 | 68 | 77 | 30.03 | SSW | 4 | 0.00 |
| 65 | 09/05 | 08:00 | 73 | 68 | 86 | 30.03 | S | 0 | 0.00 |
| 66 | 09/05 | 07:00 | 70 | 66 | 89 | 30.02 | S | 0 | 0.00 |
| 67 | 09/05 | 06:00 | 72 | 67 | 87 | 30.00 | WSW | 0 | 0.00 |
| 68 | 09/05 | 05:00 | 72 | 67 | 87 | 29.99 | SSW | 0 | 0.00 |
| 69 | 09/05 | 04:00 | 73 | 68 | 85 | 29.98 | SSW | 1 | 0.00 |
| 70 | 09/05 | 03:00 | 74 | 68 | 82 | 29.98 | SSE | 5 | 0.00 |
| 71 | 09/05 | 02:00 | 75 | 67 | 78 | 29.98 | S | 4 | 0.00 |